Time;durP1;ratioP1;P1;durP2;ratioP2;P2;SDS_P1;SDS_P2;PMS_P1;PMS_P2;Temp;Humidity;BMP_temperature;BMP_pressure;BME280_temperature;BME280_humidity;BME280_pressure;Samples;Min_cycle;Max_cycle;Signal;HPM_P1;HPM_P2
2022/04/11 00:00:48;;;;;;;15.83;13.23;;;1.50;99.90;;;;;;5020552;28;20451;-78
2022/04/11 00:03:15;;;;;;;14.63;13.13;;;1.50;99.90;;;;;;5028451;28;20451;-77
2022/04/11 00:05:42;;;;;;;14.00;12.57;;;1.50;99.90;;;;;;5028164;28;20458;-78
2022/04/11 00:08:10;;;;;;;13.93;12.47;;;1.50;99.90;;;;;;5027744;28;20499;-77
2022/04/11 00:10:37;;;;;;;14.37;13.13;;;1.50;99.90;;;;;;5032855;27;20447;-79
2022/04/11 00:13:05;;;;;;;16.23;12.93;;;1.40;99.90;;;;;;5024298;28;20483;-78
2022/04/11 00:15:34;;;;;;;14.13;12.73;;;1.40;99.90;;;;;;5027810;28;20574;-77
2022/04/11 00:18:02;;;;;;;14.60;13.07;;;1.40;99.90;;;;;;5029518;28;20823;-76
2022/04/11 00:20:30;;;;;;;14.17;12.87;;;1.40;99.90;;;;;;5031585;28;20452;-77
2022/04/11 00:22:57;;;;;;;14.20;12.77;;;1.40;99.90;;;;;;5031810;28;20455;-78
2022/04/11 00:25:26;;;;;;;14.27;12.87;;;1.40;99.90;;;;;;5031085;28;20963;-78
2022/04/11 00:27:53;;;;;;;14.33;12.93;;;1.40;99.90;;;;;;5030481;28;20466;-77
2022/04/11 00:30:20;;;;;;;13.43;12.13;;;1.40;99.90;;;;;;5031494;28;20488;-78
2022/04/11 00:32:48;;;;;;;13.80;12.60;;;1.40;99.90;;;;;;5030733;28;20465;-78
2022/04/11 00:35:15;;;;;;;16.33;13.23;;;1.40;99.90;;;;;;5031051;28;20644;-79
2022/04/11 00:37:42;;;;;;;13.90;12.53;;;1.50;99.90;;;;;;5031162;28;20481;-78
2022/04/11 00:40:11;;;;;;;14.43;13.13;;;1.40;99.90;;;;;;5030330;28;20507;-79
2022/04/11 00:42:40;;;;;;;14.43;13.13;;;1.40;99.90;;;;;;5064831;27;20972;-78
2022/04/11 00:45:08;;;;;;;14.20;13.00;;;1.40;99.90;;;;;;5030474;28;20443;-78
2022/04/11 00:47:36;;;;;;;13.40;12.30;;;1.40;99.90;;;;;;5030913;28;20861;-79
2022/04/11 00:50:05;;;;;;;13.60;12.50;;;1.40;99.90;;;;;;5030885;28;20487;-78
2022/04/11 00:52:36;;;;;;;14.47;13.17;;;1.30;99.90;;;;;;5029749;28;20489;-78
2022/04/11 00:55:07;;;;;;;14.10;12.97;;;1.30;99.90;;;;;;5030723;28;20449;-78
2022/04/11 00:57:34;;;;;;;13.73;12.53;;;1.30;99.90;;;;;;5030107;28;20556;-78
2022/04/11 01:00:05;;;;;;;13.33;11.87;;;1.30;99.90;;;;;;5031616;28;20444;-78
2022/04/11 01:02:35;;;;;;;14.27;13.07;;;1.20;99.90;;;;;;5030740;28;20512;-78
2022/04/11 01:05:04;;;;;;;13.73;12.53;;;1.20;99.90;;;;;;5029956;28;20456;-80
2022/04/11 01:07:31;;;;;;;14.03;12.70;;;1.20;99.90;;;;;;5031262;28;20457;-79
2022/04/11 01:09:58;;;;;;;13.87;12.47;;;1.10;99.90;;;;;;5025656;28;20955;-78
2022/04/11 01:12:26;;;;;;;13.37;12.10;;;1.10;99.90;;;;;;5030728;28;20475;-79
2022/04/11 01:14:53;;;;;;;13.87;12.60;;;1.10;99.90;;;;;;5031629;28;20542;-78
2022/04/11 01:17:32;;;;;;;13.93;12.70;;;1.10;99.90;;;;;;5030640;28;20474;-78
2022/04/11 01:19:59;;;;;;;13.73;12.30;;;1.10;99.90;;;;;;5030856;28;20455;-80
2022/04/11 01:22:27;;;;;;;14.97;13.47;;;1.10;99.90;;;;;;5030459;28;20447;-78
2022/04/11 01:24:55;;;;;;;13.80;12.70;;;1.10;99.90;;;;;;5029792;28;20525;-78
2022/04/11 01:27:23;;;;;;;13.10;12.00;;;1.10;99.90;;;;;;5029349;28;20990;-79
2022/04/11 01:29:50;;;;;;;13.50;12.20;;;1.10;99.90;;;;;;5029484;28;20447;-79
2022/04/11 01:32:17;;;;;;;14.03;12.33;;;1.10;99.90;;;;;;5101715;22;20905;-76
2022/04/11 01:34:44;;;;;;;14.20;12.80;;;1.00;99.90;;;;;;5083597;28;20509;-76
2022/04/11 01:37:11;;;;;;;13.60;12.30;;;1.10;99.90;;;;;;5083888;28;20448;-76
2022/04/11 01:39:40;;;;;;;14.10;13.00;;;1.10;99.90;;;;;;5083684;28;20448;-76
2022/04/11 01:42:08;;;;;;;13.73;12.53;;;1.10;99.90;;;;;;5083457;28;20475;-75
2022/04/11 01:44:35;;;;;;;14.23;13.03;;;1.10;99.90;;;;;;5087635;28;20545;-76
2022/04/11 01:47:02;;;;;;;13.73;12.60;;;1.10;99.90;;;;;;5086898;28;20803;-76
2022/04/11 01:49:29;;;;;;;14.43;13.10;;;1.10;99.90;;;;;;5091944;28;20451;-76
2022/04/11 01:51:56;;;;;;;14.77;13.43;;;1.00;99.90;;;;;;5089154;28;20909;-76
2022/04/11 01:54:23;;;;;;;13.87;12.60;;;1.00;99.90;;;;;;5091960;28;20443;-76
2022/04/11 01:56:51;;;;;;;12.97;11.97;;;1.00;99.90;;;;;;5091902;28;20440;-76
2022/04/11 01:59:18;;;;;;;13.47;12.37;;;1.00;99.90;;;;;;5091785;28;20547;-75
2022/04/11 02:01:45;;;;;;;13.97;12.67;;;1.10;99.90;;;;;;5091359;28;20468;-76
2022/04/11 02:04:12;;;;;;;14.23;13.10;;;1.00;99.90;;;;;;5091902;28;20476;-76
2022/04/11 02:06:40;;;;;;;15.43;14.13;;;1.00;99.90;;;;;;5091654;28;20998;-76
2022/04/11 02:09:07;;;;;;;13.77;12.63;;;1.00;99.90;;;;;;5091941;28;20536;-76
2022/04/11 02:11:34;;;;;;;14.77;13.37;;;1.00;99.90;;;;;;5091603;28;20495;-76
2022/04/11 02:14:03;;;;;;;14.90;13.60;;;1.10;99.90;;;;;;5091386;28;20471;-76
2022/04/11 02:16:30;;;;;;;14.13;12.97;;;1.10;99.90;;;;;;5086587;28;20456;-76
2022/04/11 02:18:57;;;;;;;13.50;12.40;;;1.10;99.90;;;;;;5085064;28;20459;-76
2022/04/11 02:21:24;;;;;;;14.67;13.27;;;1.10;99.90;;;;;;5089673;28;20457;-76
2022/04/11 02:23:51;;;;;;;15.47;14.17;;;1.10;99.90;;;;;;5087061;28;20485;-77
2022/04/11 02:26:18;;;;;;;14.90;13.60;;;1.20;99.90;;;;;;5086006;28;20961;-76
2022/04/11 02:28:45;;;;;;;15.10;13.73;;;1.20;99.90;;;;;;5091257;28;20463;-76
2022/04/11 02:31:13;;;;;;;15.77;14.23;;;1.30;99.90;;;;;;5088883;28;20530;-76
2022/04/11 02:33:40;;;;;;;14.63;13.33;;;1.30;99.90;;;;;;5087084;28;20527;-78
2022/04/11 02:36:07;;;;;;;15.03;13.63;;;1.30;99.90;;;;;;5087469;28;20948;-75
2022/04/11 02:38:34;;;;;;;15.03;13.53;;;1.40;99.90;;;;;;5090962;28;20455;-75
2022/04/11 02:41:02;;;;;;;14.57;13.33;;;1.40;99.90;;;;;;5088238;28;20749;-80
2022/04/11 02:43:39;;;;;;;15.50;14.20;;;1.40;99.90;;;;;;5093253;28;20540;-77
2022/04/11 02:46:09;;;;;;;16.27;14.77;;;1.40;99.90;;;;;;5085914;28;20456;-78
2022/04/11 02:48:40;;;;;;;15.80;14.37;;;1.50;99.90;;;;;;5091158;28;20452;-77
2022/04/11 02:51:12;;;;;;;15.07;13.77;;;1.50;99.90;;;;;;5088087;28;20480;-76
2022/04/11 02:53:44;;;;;;;15.50;14.07;;;1.50;99.90;;;;;;5098418;28;20463;-77
2022/04/11 02:56:12;;;;;;;13.67;12.47;;;1.50;99.90;;;;;;5082671;28;20828;-76
2022/04/11 02:58:39;;;;;;;14.60;13.50;;;1.50;99.90;;;;;;5087418;28;20447;-77
2022/04/11 03:01:06;;;;;;;14.90;13.50;;;1.50;99.90;;;;;;5086922;28;20466;-76
2022/04/11 03:03:36;;;;;;;15.43;14.03;;;1.50;99.90;;;;;;5090521;28;20848;-76
2022/04/11 03:06:05;;;;;;;15.17;14.03;;;1.50;99.90;;;;;;5090149;28;20440;-77
2022/04/11 03:08:32;;;;;;;14.67;13.37;;;1.50;99.90;;;;;;5082650;28;20475;-76
2022/04/11 03:11:01;;;;;;;16.90;15.30;;;1.50;99.90;;;;;;5090660;28;20461;-78
2022/04/11 03:13:30;;;;;;;15.33;14.03;;;1.50;99.90;;;;;;5086853;28;20533;-80
2022/04/11 03:15:58;;;;;;;15.17;13.70;;;1.50;99.90;;;;;;5087053;28;20532;-78
2022/04/11 03:18:25;;;;;;;15.90;14.60;;;1.50;99.90;;;;;;5090836;28;20457;-81
2022/04/11 03:20:53;;;;;;;15.20;13.80;;;1.60;99.90;;;;;;5090785;28;20464;-80
2022/04/11 03:23:22;;;;;;;16.27;14.83;;;1.60;99.90;;;;;;5090083;28;20972;-79
2022/04/11 03:25:54;;;;;;;15.97;14.37;;;1.60;99.90;;;;;;5094033;28;20450;-77
2022/04/11 03:28:25;;;;;;;15.50;14.10;;;1.60;99.90;;;;;;5084565;28;20818;-76
2022/04/11 03:30:53;;;;;;;14.73;13.53;;;1.60;99.90;;;;;;5083972;28;20476;-77
2022/04/11 03:33:20;;;;;;;14.63;13.43;;;1.50;99.90;;;;;;5088211;28;20472;-77
2022/04/11 03:35:48;;;;;;;16.50;15.03;;;1.50;99.90;;;;;;5083493;28;20452;-77
2022/04/11 03:38:15;;;;;;;15.03;13.73;;;1.50;99.90;;;;;;5085594;28;20451;-76
2022/04/11 03:40:44;;;;;;;16.17;14.50;;;1.50;99.90;;;;;;5088735;28;20461;-77
2022/04/11 03:43:13;;;;;;;16.03;14.63;;;1.50;99.90;;;;;;5089075;28;20455;-77
2022/04/11 03:45:42;;;;;;;15.33;14.03;;;1.50;99.90;;;;;;5082869;28;20943;-78
2022/04/11 03:48:10;;;;;;;14.60;13.27;;;1.40;99.90;;;;;;5088875;28;20979;-77
2022/04/11 03:50:39;;;;;;;16.33;14.73;;;1.50;99.90;;;;;;5078557;28;20472;-76
2022/04/11 03:53:06;;;;;;;15.03;13.77;;;1.50;99.90;;;;;;5087762;28;20466;-77
2022/04/11 03:55:37;;;;;;;15.13;13.83;;;1.40;99.90;;;;;;5086176;28;20440;-77
2022/04/11 03:58:07;;;;;;;14.60;13.30;;;1.40;99.90;;;;;;5081743;28;20457;-77
2022/04/11 04:00:37;;;;;;;15.53;14.23;;;1.40;99.90;;;;;;5090999;28;20446;-76
2022/04/11 04:03:15;;;;;;;15.03;13.80;;;1.40;99.90;;;;;;5094059;28;20822;-77
2022/04/11 04:05:47;;;;;;;16.00;14.57;;;1.40;99.90;;;;;;5087840;28;20485;-77
2022/04/11 04:08:19;;;;;;;14.90;13.70;;;1.40;99.90;;;;;;5092371;28;20535;-77
2022/04/11 04:11:01;;;;;;;15.30;14.00;;;1.40;99.90;;;;;;5092913;28;20547;-77
2022/04/11 04:13:35;;;;;;;16.20;14.73;;;1.30;99.90;;;;;;5091344;28;20543;-77
2022/04/11 04:16:04;;;;;;;15.30;14.00;;;1.30;99.90;;;;;;5087286;28;20450;-76
2022/04/11 04:18:32;;;;;;;15.43;14.23;;;1.30;99.90;;;;;;5093483;28;20531;-77
2022/04/11 04:21:01;;;;;;;15.40;14.20;;;1.30;99.90;;;;;;5093581;28;20837;-77
2022/04/11 04:23:28;;;;;;;17.43;14.83;;;1.30;99.90;;;;;;5093796;28;20445;-77
2022/04/11 04:25:56;;;;;;;16.07;14.77;;;1.30;99.90;;;;;;5088397;28;20452;-76
2022/04/11 04:28:25;;;;;;;16.53;15.10;;;1.30;99.90;;;;;;5091445;28;20956;-77
2022/04/11 04:30:55;;;;;;;16.57;15.17;;;1.30;99.90;;;;;;5091456;28;20479;-77
2022/04/11 04:33:22;;;;;;;17.50;15.90;;;1.30;99.90;;;;;;5093208;28;20492;-77
2022/04/11 04:35:51;;;;;;;16.43;15.10;;;1.30;99.90;;;;;;5087400;28;20447;-76
2022/04/11 04:38:19;;;;;;;16.23;14.93;;;1.20;99.90;;;;;;5092964;28;20825;-77
2022/04/11 04:40:50;;;;;;;16.73;15.43;;;1.30;99.90;;;;;;5093388;28;21202;-76
2022/04/11 04:43:21;;;;;;;16.60;15.13;;;1.30;99.90;;;;;;5092107;28;20447;-77
2022/04/11 04:45:49;;;;;;;16.30;15.00;;;1.30;99.90;;;;;;5086223;28;20448;-77
2022/04/11 04:48:32;;;;;;;16.83;15.43;;;1.20;99.90;;;;;;5083212;28;20494;-77
2022/04/11 04:51:00;;;;;;;18.13;16.57;;;1.20;99.90;;;;;;5079999;28;20464;-77
2022/04/11 04:53:29;;;;;;;17.23;15.60;;;1.10;99.90;;;;;;5093289;28;20501;-77
2022/04/11 04:55:59;;;;;;;15.67;14.37;;;1.10;99.90;;;;;;5087717;28;20454;-77
2022/04/11 04:58:27;;;;;;;17.13;15.63;;;1.10;99.90;;;;;;5090274;28;20957;-77
2022/04/11 05:00:54;;;;;;;16.53;14.90;;;1.10;99.90;;;;;;5091542;28;20490;-77
2022/04/11 05:03:24;;;;;;;17.20;15.50;;;1.10;99.90;;;;;;5085252;28;20819;-77
2022/04/11 05:05:54;;;;;;;16.43;14.93;;;1.10;99.90;;;;;;5090041;28;20980;-77
2022/04/11 05:08:21;;;;;;;17.13;15.53;;;1.20;99.90;;;;;;5093468;28;20964;-76
2022/04/11 05:10:48;;;;;;;21.10;17.33;;;1.20;99.90;;;;;;5087877;28;20459;-77
2022/04/11 05:13:15;;;;;;;17.80;16.17;;;1.30;99.90;;;;;;5089196;28;20445;-77
2022/04/11 05:15:46;;;;;;;18.30;16.57;;;1.30;99.90;;;;;;5092382;28;20471;-76
2022/04/11 05:18:17;;;;;;;16.43;15.13;;;1.30;99.90;;;;;;5090030;28;20978;-76
2022/04/11 05:20:44;;;;;;;16.53;15.23;;;1.30;99.90;;;;;;5089587;28;20539;-79
2022/04/11 05:23:14;;;;;;;17.83;16.27;;;1.30;99.90;;;;;;5091562;28;20464;-80
2022/04/11 05:25:43;;;;;;;16.27;14.87;;;1.30;99.90;;;;;;5086346;28;21008;-78
2022/04/11 05:28:10;;;;;;;17.00;15.40;;;1.40;99.90;;;;;;5092815;28;20540;-78
2022/04/11 05:30:45;;;;;;;17.47;15.80;;;1.40;99.90;;;;;;5087614;28;20477;-78
2022/04/11 05:33:12;;;;;;;18.43;16.53;;;1.50;99.90;;;;;;5089406;28;21027;-78
2022/04/11 05:35:40;;;;;;;18.70;17.10;;;1.80;99.90;;;;;;5092407;28;20510;-78
2022/04/11 05:38:14;;;;;;;19.10;17.30;;;2.20;99.90;;;;;;5089127;28;20453;-78
2022/04/11 05:40:41;;;;;;;16.63;14.97;;;2.60;99.90;;;;;;5088026;28;20467;-78
2022/04/11 05:43:13;;;;;;;15.53;14.13;;;3.00;99.90;;;;;;5088918;28;20461;-78
2022/04/11 05:45:40;;;;;;;16.20;14.23;;;3.30;99.90;;;;;;5076528;28;20451;-78
2022/04/11 05:48:07;;;;;;;15.47;13.87;;;3.60;99.90;;;;;;5092448;28;20629;-78
2022/04/11 05:50:35;;;;;;;14.20;13.00;;;3.90;99.90;;;;;;5091709;28;20231;-78
2022/04/11 05:53:02;;;;;;;16.10;14.80;;;4.10;99.90;;;;;;5086039;28;20194;-78
2022/04/11 05:55:30;;;;;;;13.87;12.57;;;4.40;99.90;;;;;;5088167;28;20240;-78
2022/04/11 05:57:59;;;;;;;15.67;14.47;;;4.50;99.90;;;;;;5085851;28;20579;-78
2022/04/11 06:00:27;;;;;;;14.63;13.27;;;4.60;99.90;;;;;;5091281;28;20230;-78
2022/04/11 06:02:54;;;;;;;14.00;12.73;;;4.70;99.90;;;;;;5086269;28;20202;-78
2022/04/11 06:05:23;;;;;;;14.70;13.37;;;5.10;99.90;;;;;;5085784;28;20208;-78
2022/04/11 06:07:50;;;;;;;14.80;13.37;;;5.30;99.90;;;;;;5085651;28;20197;-79
2022/04/11 06:10:19;;;;;;;13.73;12.40;;;5.50;99.90;;;;;;5091844;28;20204;-78
2022/04/11 06:12:49;;;;;;;13.40;12.10;;;5.60;99.90;;;;;;5091101;28;20194;-79
2022/04/11 06:15:17;;;;;;;14.17;12.97;;;5.70;99.90;;;;;;5091294;28;20375;-76
2022/04/11 06:17:46;;;;;;;13.67;12.40;;;5.90;99.90;;;;;;5086804;28;20190;-76
2022/04/11 06:20:13;;;;;;;13.10;11.87;;;5.90;99.90;;;;;;5088115;28;20190;-76
2022/04/11 06:22:41;;;;;;;13.50;12.23;;;6.10;99.90;;;;;;5086304;28;20706;-76
2022/04/11 06:25:10;;;;;;;13.83;12.70;;;6.10;99.90;;;;;;5085712;28;20191;-76
2022/04/11 06:27:38;;;;;;;14.47;13.23;;;6.30;99.90;;;;;;5077728;28;20675;-76
2022/04/11 06:30:07;;;;;;;13.73;12.43;;;6.50;99.90;;;;;;5089817;28;20199;-78
2022/04/11 06:32:37;;;;;;;13.67;12.40;;;6.80;99.90;;;;;;5079997;28;20227;-78
2022/04/11 06:35:05;;;;;;;12.70;11.60;;;6.90;99.90;;;;;;5078873;28;20214;-79
2022/04/11 06:37:32;;;;;;;12.40;10.57;;;7.00;99.90;;;;;;5091438;28;20195;-79
2022/04/11 06:40:01;;;;;;;13.60;12.50;;;7.10;99.90;;;;;;5086835;28;20225;-78
2022/04/11 06:42:30;;;;;;;10.80;9.47;;;7.20;99.90;;;;;;5086412;28;20316;-79
2022/04/11 06:44:58;;;;;;;7.67;6.87;;;7.20;99.90;;;;;;5088945;28;20241;-79
2022/04/11 06:47:30;;;;;;;8.00;6.00;;;7.30;99.90;;;;;;5090026;28;20248;-79
2022/04/11 06:49:57;;;;;;;7.57;6.77;;;7.50;99.90;;;;;;5090376;28;20241;-79
2022/04/11 06:52:24;;;;;;;8.03;6.50;;;7.60;99.90;;;;;;5088747;28;20222;-79
2022/04/11 06:54:51;;;;;;;10.53;7.27;;;7.80;99.90;;;;;;5091155;28;20689;-79
2022/04/11 06:57:18;;;;;;;10.13;9.10;;;7.90;99.90;;;;;;5090880;28;20208;-79
2022/04/11 06:59:45;;;;;;;10.03;6.80;;;8.10;99.90;;;;;;5091034;28;20682;-79
2022/04/11 07:02:12;;;;;;;9.87;8.83;;;8.30;99.90;;;;;;5088034;28;20311;-79
2022/04/11 07:04:40;;;;;;;7.83;6.57;;;8.60;99.90;;;;;;5087191;28;20190;-79
2022/04/11 07:07:07;;;;;;;11.00;8.90;;;8.80;99.90;;;;;;5086766;28;20201;-79
2022/04/11 07:09:34;;;;;;;10.70;9.70;;;8.90;99.90;;;;;;5090737;28;20245;-79
2022/04/11 07:12:01;;;;;;;12.37;11.17;;;9.00;99.90;;;;;;5090415;28;20217;-79
2022/04/11 07:14:28;;;;;;;13.50;12.20;;;9.40;99.90;;;;;;5090622;28;20767;-79
2022/04/11 07:16:55;;;;;;;11.67;10.53;;;9.50;99.90;;;;;;5086296;28;20232;-79
2022/04/11 07:19:22;;;;;;;12.00;11.00;;;9.80;99.90;;;;;;5089065;28;20217;-79
2022/04/11 07:21:50;;;;;;;12.17;10.93;;;10.30;99.90;;;;;;5090621;28;20216;-78
2022/04/11 07:24:17;;;;;;;9.67;8.70;;;10.70;99.90;;;;;;5090664;28;20194;-78
2022/04/11 07:26:44;;;;;;;9.93;8.93;;;11.10;99.90;;;;;;5090788;28;20198;-78
2022/04/11 07:29:11;;;;;;;9.83;8.83;;;11.70;99.90;;;;;;5084541;28;20192;-78
2022/04/11 07:31:38;;;;;;;8.63;7.83;;;12.00;99.90;;;;;;5089554;28;20219;-80
2022/04/11 07:34:05;;;;;;;9.33;8.43;;;12.10;99.90;;;;;;5086500;28;20598;-80
2022/04/11 07:36:32;;;;;;;8.27;6.87;;;12.30;99.90;;;;;;5091038;28;20564;-81
2022/04/11 07:39:00;;;;;;;8.80;6.73;;;12.40;99.90;;;;;;5083941;28;20224;-80
2022/04/11 07:41:27;;;;;;;7.67;6.97;;;12.80;99.90;;;;;;5090275;28;20327;-81
2022/04/11 07:43:56;;;;;;;8.43;7.00;;;13.10;99.90;;;;;;5090716;28;20224;-82
2022/04/11 07:46:23;;;;;;;9.80;8.90;;;13.70;99.90;;;;;;5087054;28;20243;-80
2022/04/11 07:48:51;;;;;;;10.60;9.70;;;13.90;99.90;;;;;;5085256;28;20687;-80
2022/04/11 07:51:18;;;;;;;7.73;7.03;;;14.10;99.90;;;;;;5087973;28;20210;-80
2022/04/11 07:53:45;;;;;;;8.87;8.10;;;14.30;99.90;;;;;;5089143;28;20190;-80
2022/04/11 07:56:13;;;;;;;7.63;5.33;;;14.30;99.90;;;;;;5073108;28;20222;-81
2022/04/11 07:58:40;;;;;;;8.73;6.37;;;14.80;99.90;;;;;;5092580;28;20198;-81
2022/04/11 08:01:07;;;;;;;9.67;8.87;;;14.80;99.90;;;;;;5093313;28;20221;-81
2022/04/11 08:03:34;;;;;;;4.97;4.40;;;14.80;99.90;;;;;;5094136;28;20198;-81
2022/04/11 08:06:01;;;;;;;10.40;9.50;;;15.00;99.90;;;;;;5091202;28;20238;-81
2022/04/11 08:08:28;;;;;;;9.93;9.23;;;15.00;99.90;;;;;;5091880;28;20283;-80
2022/04/11 08:10:56;;;;;;;10.83;10.03;;;15.20;99.90;;;;;;5091813;28;20252;-81
2022/04/11 08:13:24;;;;;;;8.20;7.50;;;15.20;99.90;;;;;;5090372;28;20560;-80
2022/04/11 08:15:51;;;;;;;10.03;9.30;;;15.20;99.90;;;;;;5091790;28;20211;-80
2022/04/11 08:18:18;;;;;;;10.33;9.43;;;15.30;99.90;;;;;;5089331;28;20287;-80
2022/04/11 08:20:45;;;;;;;10.53;9.70;;;15.40;99.90;;;;;;5091419;28;20278;-80
2022/04/11 08:23:12;;;;;;;4.57;3.70;;;15.70;99.90;;;;;;5089061;28;20198;-80
2022/04/11 08:25:39;;;;;;;8.73;7.93;;;15.80;99.90;;;;;;5089745;28;20654;-80
2022/04/11 08:28:06;;;;;;;4.67;3.90;;;15.90;99.40;;;;;;5087365;28;20292;-80
2022/04/11 08:30:35;;;;;;;8.23;7.53;;;15.40;98.80;;;;;;5091052;28;20197;-80
2022/04/11 08:33:02;;;;;;;10.97;10.17;;;15.20;99.80;;;;;;5092221;28;20590;-81
2022/04/11 08:35:29;;;;;;;9.30;8.50;;;15.40;99.90;;;;;;5091047;28;20327;-83
2022/04/11 08:37:56;;;;;;;9.20;8.60;;;15.50;99.80;;;;;;5093523;28;20205;-81
2022/04/11 08:40:23;;;;;;;9.80;9.00;;;15.70;99.90;;;;;;5092306;28;20204;-82
2022/04/11 08:42:51;;;;;;;9.00;8.30;;;15.80;99.90;;;;;;5091505;28;20287;-84
2022/04/11 08:45:20;;;;;;;9.20;8.40;;;15.80;99.90;;;;;;5095258;28;20259;-83
2022/04/11 08:47:50;;;;;;;8.60;8.00;;;15.80;99.90;;;;;;5096937;28;20209;-82
2022/04/11 08:50:18;;;;;;;9.87;9.03;;;16.00;98.90;;;;;;5097900;28;20204;-84
2022/04/11 08:52:45;;;;;;;9.23;8.53;;;15.80;98.90;;;;;;5089747;28;20208;-81
2022/04/11 08:55:12;;;;;;;9.50;8.70;;;16.10;99.90;;;;;;5095425;28;20590;-84
2022/04/11 08:57:40;;;;;;;9.03;8.43;;;16.50;99.90;;;;;;5094621;28;20660;-80
2022/04/11 09:00:10;;;;;;;8.63;8.03;;;16.60;96.10;;;;;;5091891;28;20206;-84
2022/04/11 09:02:39;;;;;;;8.17;7.67;;;16.60;96.70;;;;;;5087878;28;20237;-81
2022/04/11 09:05:08;;;;;;;8.70;7.97;;;16.70;96.70;;;;;;5096064;28;20285;-83
2022/04/11 09:07:46;;;;;;;8.83;8.03;;;16.60;96.30;;;;;;5096694;28;20200;-81
2022/04/11 09:10:13;;;;;;;8.73;8.03;;;16.70;95.00;;;;;;5090747;28;20201;-83
2022/04/11 09:12:48;;;;;;;8.40;7.80;;;16.70;95.10;;;;;;5096171;28;20667;-81
2022/04/11 09:15:16;;;;;;;8.70;8.10;;;16.90;95.20;;;;;;5096171;28;20712;-83
2022/04/11 09:17:43;;;;;;;8.47;7.93;;;17.10;94.70;;;;;;5096490;28;20194;-84
2022/04/11 09:20:13;;;;;;;9.43;8.73;;;17.20;93.90;;;;;;5096069;28;20198;-81
2022/04/11 09:22:40;;;;;;;8.50;7.90;;;17.10;93.80;;;;;;5087689;28;20225;-83
2022/04/11 09:25:10;;;;;;;9.00;8.40;;;17.20;94.10;;;;;;5084597;28;20259;-82
2022/04/11 09:27:37;;;;;;;8.40;7.70;;;17.30;92.50;;;;;;5093603;28;20197;-83
2022/04/11 09:30:22;;;;;;;7.77;7.27;;;17.30;92.60;;;;;;5091528;28;20201;-83
2022/04/11 09:33:03;;;;;;;8.60;8.00;;;17.30;92.10;;;;;;5090308;28;20228;-81
2022/04/11 09:35:33;;;;;;;8.57;8.07;;;17.00;92.60;;;;;;5094431;28;20218;-83
2022/04/11 09:38:08;;;;;;;8.23;7.73;;;16.90;91.90;;;;;;5090351;28;20560;-85
2022/04/11 09:40:39;;;;;;;8.30;7.80;;;17.20;92.00;;;;;;5094264;28;20224;-83
2022/04/11 09:43:07;;;;;;;8.53;7.93;;;17.40;91.40;;;;;;5091134;28;20190;-83
2022/04/11 09:45:40;;;;;;;8.73;8.23;;;17.40;91.50;;;;;;5096465;28;20191;-82
2022/04/11 09:48:08;;;;;;;8.40;7.90;;;17.40;92.70;;;;;;5092541;28;20186;-83
2022/04/11 09:50:37;;;;;;;8.23;7.73;;;17.50;90.30;;;;;;5095274;28;20651;-81
2022/04/11 09:53:08;;;;;;;8.10;7.57;;;17.10;90.20;;;;;;5093375;28;20206;-80
2022/04/11 09:55:36;;;;;;;8.20;7.60;;;16.80;89.60;;;;;;5090328;28;20202;-82
2022/04/11 09:58:04;;;;;;;8.23;7.73;;;17.00;89.70;;;;;;5092549;28;20198;-80
2022/04/11 10:00:34;;;;;;;7.93;7.50;;;16.80;90.20;;;;;;5090183;28;20202;-80
2022/04/11 10:03:02;;;;;;;8.00;7.50;;;16.70;88.70;;;;;;5087431;28;20225;-81
2022/04/11 10:05:30;;;;;;;7.53;7.07;;;16.50;90.50;;;;;;5097103;28;20275;-81
2022/04/11 10:07:59;;;;;;;7.80;7.30;;;16.50;91.00;;;;;;5092310;28;20287;-81
2022/04/11 10:10:41;;;;;;;7.67;7.17;;;16.60;92.10;;;;;;5095173;28;20405;-81
2022/04/11 10:13:11;;;;;;;7.67;7.20;;;16.60;90.90;;;;;;5091918;28;20244;-82
2022/04/11 10:15:39;;;;;;;8.03;7.50;;;16.70;90.00;;;;;;5097920;28;20193;-80
2022/04/11 10:18:07;;;;;;;8.00;7.40;;;16.60;90.10;;;;;;5080916;28;20657;-80
2022/04/11 10:20:37;;;;;;;7.57;7.10;;;16.60;91.00;;;;;;5092006;28;20221;-80
2022/04/11 10:23:19;;;;;;;7.50;7.00;;;16.70;92.40;;;;;;5092016;28;20209;-81
2022/04/11 10:25:48;;;;;;;7.87;7.30;;;16.50;90.40;;;;;;5094200;28;20299;-81
2022/04/11 10:28:20;;;;;;;7.30;6.80;;;16.40;90.10;;;;;;5095423;28;20299;-78
2022/04/11 10:31:04;;;;;;;7.20;6.70;;;16.40;90.50;;;;;;5092795;28;20662;-84
2022/04/11 10:33:49;;;;;;;7.40;6.90;;;16.50;89.10;;;;;;5093881;28;20224;-82
2022/04/11 10:36:35;;;;;;;7.77;7.17;;;16.60;90.50;;;;;;5106231;28;20205;-83
2022/04/11 10:39:29;;;;;;;7.60;7.13;;;16.60;90.30;;;;;;5084023;28;20677;-84
2022/04/11 10:42:28;;;;;;;7.60;7.00;;;16.30;89.40;;;;;;5088755;28;20679;-81
2022/04/11 10:44:56;;;;;;;7.80;7.30;;;16.20;89.80;;;;;;5004589;28;20289;-82
2022/04/11 10:47:34;;;;;;;7.63;7.13;;;16.30;89.00;;;;;;5058311;28;20293;-82
2022/04/11 10:50:34;;;;;;;7.70;7.20;;;16.30;90.80;;;;;;5094863;28;20222;-81
2022/04/11 10:53:13;;;;;;;7.83;7.20;;;16.30;91.20;;;;;;5090394;28;20200;-81
2022/04/11 10:56:02;;;;;;;7.77;7.30;;;16.10;90.50;;;;;;5103315;28;20263;-82
2022/04/11 10:58:52;;;;;;;7.40;6.97;;;16.20;90.80;;;;;;5082945;28;20195;-81
2022/04/11 11:01:53;;;;;;;8.00;7.50;;;16.20;90.60;;;;;;5081154;28;20767;-82
2022/04/11 11:04:21;;;;;;;7.93;7.43;;;16.20;89.50;;;;;;5090180;28;20200;-80
2022/04/11 11:07:09;;;;;;;8.13;7.53;;;16.10;88.90;;;;;;5090821;28;20284;-80
2022/04/11 11:09:40;;;;;;;7.73;7.23;;;16.10;89.10;;;;;;5083188;28;20275;-80
2022/04/11 11:12:22;;;;;;;8.13;7.57;;;15.90;89.00;;;;;;5090941;28;20219;-80
2022/04/11 11:14:49;;;;;;;8.00;7.40;;;15.90;90.30;;;;;;5089018;28;20224;-79
2022/04/11 11:17:16;;;;;;;8.00;7.40;;;15.70;90.40;;;;;;5092605;28;20662;-82
2022/04/11 11:20:03;;;;;;;7.80;7.30;;;15.60;89.00;;;;;;5093160;28;20191;-81
2022/04/11 11:22:33;;;;;;;7.40;6.90;;;15.60;90.10;;;;;;5087583;28;20229;-82
2022/04/11 11:25:18;;;;;;;7.40;6.93;;;15.60;89.70;;;;;;5092961;28;20204;-80
2022/04/11 11:27:49;;;;;;;7.43;7.03;;;15.60;87.90;;;;;;5080282;28;20688;-80
2022/04/11 11:30:16;;;;;;;7.50;6.90;;;15.60;89.00;;;;;;5081186;28;20246;-79
2022/04/11 11:32:44;;;;;;;7.10;6.70;;;15.50;88.70;;;;;;5075929;28;20723;-82
2022/04/11 11:35:11;;;;;;;7.53;7.03;;;15.60;87.60;;;;;;5093406;28;20195;-79
2022/04/11 11:37:38;;;;;;;7.33;6.90;;;15.60;86.10;;;;;;5105913;28;20195;-79
2022/04/11 11:40:09;;;;;;;7.30;6.80;;;15.50;87.00;;;;;;5089779;28;20195;-78
2022/04/11 11:42:37;;;;;;;7.00;6.60;;;15.50;87.00;;;;;;5090313;28;20229;-80
2022/04/11 11:45:08;;;;;;;6.90;6.50;;;15.60;86.10;;;;;;5093384;28;20261;-81
2022/04/11 11:47:35;;;;;;;7.30;6.80;;;15.60;87.20;;;;;;5095945;28;20266;-81
2022/04/11 11:50:04;;;;;;;7.27;6.87;;;15.60;86.50;;;;;;5086811;28;20289;-80
2022/04/11 11:52:31;;;;;;;7.33;6.83;;;15.50;86.30;;;;;;5092606;28;20256;-80
2022/04/11 11:54:58;;;;;;;7.00;6.60;;;15.70;87.80;;;;;;5087339;28;20203;-81
2022/04/11 11:57:27;;;;;;;7.10;6.70;;;15.90;88.40;;;;;;5093332;28;20230;-81
2022/04/11 11:59:55;;;;;;;7.23;6.80;;;16.10;88.20;;;;;;5092630;28;20287;-81
2022/04/11 12:05:18;;;;;;;7.10;6.60;;;16.10;86.80;;;;;;5091314;28;20578;-81
2022/04/11 12:07:45;;;;;;;7.37;6.90;;;16.00;86.60;;;;;;5090389;28;20661;-80
2022/04/11 12:10:15;;;;;;;7.10;6.70;;;16.10;85.10;;;;;;5090989;28;20263;-80
2022/04/11 12:12:45;;;;;;;6.70;6.37;;;16.10;86.20;;;;;;5090866;28;20308;-80
2022/04/11 12:15:15;;;;;;;6.63;6.23;;;16.20;86.80;;;;;;5090950;28;20321;-81
2022/04/11 12:17:46;;;;;;;6.43;6.13;;;16.30;86.20;;;;;;5089096;28;20612;-80
2022/04/11 12:20:16;;;;;;;6.90;6.50;;;16.40;86.70;;;;;;5088673;28;20221;-79
2022/04/11 12:23:01;;;;;;;6.67;6.27;;;16.40;85.00;;;;;;5093537;28;20217;-79
2022/04/11 12:25:29;;;;;;;6.70;6.20;;;16.40;85.50;;;;;;5092586;28;20302;-80
2022/04/11 12:28:17;;;;;;;7.10;6.70;;;16.30;82.70;;;;;;5106045;28;20685;-79
2022/04/11 12:30:47;;;;;;;7.13;6.63;;;16.30;83.80;;;;;;5103880;28;20220;-80
2022/04/11 12:33:35;;;;;;;7.37;6.77;;;16.30;84.30;;;;;;5094380;28;20199;-80
2022/04/11 12:36:11;;;;;;;7.07;6.57;;;16.20;84.50;;;;;;5087153;28;20200;-80
2022/04/11 12:38:43;;;;;;;6.90;6.40;;;16.20;82.40;;;;;;5086017;28;20196;-80
2022/04/11 12:41:34;;;;;;;7.00;6.50;;;16.10;83.00;;;;;;5090124;28;20213;-79
2022/04/11 12:44:09;;;;;;;7.13;6.53;;;16.00;83.10;;;;;;5089649;28;20207;-80
2022/04/11 12:46:37;;;;;;;7.27;6.77;;;15.90;84.00;;;;;;5094177;28;20310;-79
2022/04/11 12:49:07;;;;;;;7.10;6.60;;;15.90;83.40;;;;;;5095939;28;20282;-80
2022/04/11 12:51:34;;;;;;;6.60;6.20;;;16.00;83.60;;;;;;5092339;28;20774;-82
2022/04/11 12:54:06;;;;;;;6.90;6.50;;;16.00;84.70;;;;;;5093071;28;20659;-80
2022/04/11 12:56:38;;;;;;;7.03;6.60;;;16.10;85.30;;;;;;5093673;28;20238;-80